Time;durP1;ratioP1;P1;durP2;ratioP2;P2;SDS_P1;SDS_P2;PMS_P1;PMS_P2;Temp;Humidity;BMP_temperature;BMP_pressure;BME280_temperature;BME280_humidity;BME280_pressure;Samples;Min_cycle;Max_cycle;Signal;HPM_P1;HPM_P2
2022/09/24 00:00:32;;;;;;;;;;;;;;;5.83;100.00;98202.53;4986028;28;20720;-44
2022/09/24 00:02:59;;;;;;;;;;;;;;;5.85;100.00;98198.94;4971130;28;20402;-48
2022/09/24 00:05:28;;;;;;;;;;;;;;;5.91;100.00;98201.34;4984828;28;19925;-44
2022/09/24 00:07:55;;;;;;;;;;;;;;;5.84;100.00;98193.81;5008821;28;19925;-46
2022/09/24 00:10:22;;;;;;;;;;;;;;;5.78;100.00;98187.09;5008790;28;19940;-52
2022/09/24 00:12:51;;;;;;;;;;;;;;;5.94;100.00;98193.38;5002030;28;19925;-44
2022/09/24 00:15:18;;;;;;;;;;;;;;;6.10;100.00;98196.19;5011108;28;19926;-45
2022/09/24 00:17:46;;;;;;;;;;;;;;;6.07;100.00;98194.53;5018290;28;19978;-44
2022/09/24 00:20:13;;;;;;;;;;;;;;;6.14;100.00;98188.13;5026617;28;20010;-45
2022/09/24 00:22:41;;;;;;;;;;;;;;;6.21;100.00;98189.56;5008137;28;19925;-45
2022/09/24 00:27:53;;;;;;;;;;;;;;;6.68;100.00;98184.78;5010748;28;19957;-45
2022/09/24 00:30:20;;;;;;;;;;;;;;;6.72;100.00;98186.34;4988139;28;20381;-44
2022/09/24 00:32:47;;;;;;;;;;;;;;;6.79;100.00;98182.53;5017259;28;19978;-44
2022/09/24 00:35:15;;;;;;;;;;;;;;;6.87;100.00;98191.72;5022851;28;19930;-45
2022/09/24 00:37:44;;;;;;;;;;;;;;;6.88;100.00;98177.72;5011333;28;19972;-45
2022/09/24 00:40:11;;;;;;;;;;;;;;;6.78;100.00;98175.59;5010455;28;19925;-45
2022/09/24 00:42:38;;;;;;;;;;;;;;;6.82;100.00;98161.47;5009098;28;19929;-45
2022/09/24 00:45:06;;;;;;;;;;;;;;;6.83;100.00;98169.25;5010748;28;20137;-45
2022/09/24 00:47:35;;;;;;;;;;;;;;;6.86;100.00;98160.41;5010863;28;19929;-45
2022/09/24 00:50:06;;;;;;;;;;;;;;;6.91;100.00;98167.09;4989202;28;20293;-46
2022/09/24 00:52:35;;;;;;;;;;;;;;;6.93;100.00;98160.06;5008294;28;19929;-44
2022/09/24 00:55:04;;;;;;;;;;;;;;;6.92;100.00;98163.59;4992067;28;19925;-46
2022/09/24 00:57:31;;;;;;;;;;;;;;;6.48;100.00;98154.38;5009389;28;19925;-46
2022/09/24 00:59:59;;;;;;;;;;;;;;;6.31;100.00;98161.25;5007979;28;20396;-45
2022/09/24 01:02:26;;;;;;;;;;;;;;;6.29;100.00;98150.88;4990247;28;19952;-44
2022/09/24 01:04:54;;;;;;;;;;;;;;;6.27;100.00;98157.94;5008131;28;19926;-45
2022/09/24 01:07:21;;;;;;;;;;;;;;;6.21;100.00;98152.97;5007790;28;19926;-44
2022/09/24 01:09:49;;;;;;;;;;;;;;;6.23;100.00;98150.31;4988197;28;20016;-44
2022/09/24 01:12:23;;;;;;;;;;;;;;;6.23;100.00;98150.31;4991869;28;20297;-46
2022/09/24 01:14:58;;;;;;;;;;;;;;;6.13;100.00;98139.41;5007385;28;19965;-46
2022/09/24 01:17:29;;;;;;;;;;;;;;;6.14;100.00;98141.09;5007461;28;20277;-44
2022/09/24 01:20:05;;;;;;;;;;;;;;;6.15;100.00;98142.81;5008988;28;20377;-44
2022/09/24 01:22:43;;;;;;;;;;;;;;;6.05;100.00;98136.31;5009398;28;19925;-44
2022/09/24 01:25:16;;;;;;;;;;;;;;;5.98;100.00;98132.28;5009448;28;19972;-45
2022/09/24 01:27:51;;;;;;;;;;;;;;;5.89;100.00;98131.78;4990225;28;20277;-46
2022/09/24 01:30:19;;;;;;;;;;;;;;;5.88;100.00;98133.56;5009187;28;19926;-45
2022/09/24 01:32:49;;;;;;;;;;;;;;;5.80;100.00;98129.56;5009425;28;19929;-47
2022/09/24 01:35:20;;;;;;;;;;;;;;;5.80;100.00;98130.44;5008565;28;19925;-44
2022/09/24 01:37:50;;;;;;;;;;;;;;;5.77;100.00;98130.56;5008899;28;19952;-44
2022/09/24 01:40:19;;;;;;;;;;;;;;;5.76;100.00;98131.47;4991429;28;19925;-45
2022/09/24 01:42:46;;;;;;;;;;;;;;;5.72;100.00;98121.22;5008774;28;19925;-44
2022/09/24 01:45:14;;;;;;;;;;;;;;;5.73;100.00;98120.34;5009001;28;19968;-44
2022/09/24 01:47:44;;;;;;;;;;;;;;;5.70;100.00;98117.84;5009138;28;19926;-46
2022/09/24 01:50:14;;;;;;;;;;;;;;;5.71;100.00;98114.31;4979901;28;20455;-44
2022/09/24 01:52:43;;;;;;;;;;;;;;;5.61;100.00;98113.88;5013807;28;19932;-44
2022/09/24 01:55:12;;;;;;;;;;;;;;;5.46;100.00;98114.53;5022740;28;20291;-44
2022/09/24 01:57:42;;;;;;;;;;;;;;;5.49;100.00;98109.19;5007318;28;19932;-45
2022/09/24 02:00:11;;;;;;;;;;;;;;;5.36;100.00;98104.56;5009292;28;20365;-45
2022/09/24 02:02:47;;;;;;;;;;;;;;;5.40;100.00;98103.53;4999678;28;20016;-44
2022/09/24 02:05:17;;;;;;;;;;;;;;;5.27;100.00;98104.94;5008584;28;19941;-44
2022/09/24 02:07:49;;;;;;;;;;;;;;;5.49;100.00;98097.91;5008810;28;19925;-44
2022/09/24 02:10:18;;;;;;;;;;;;;;;5.13;100.00;98104.66;5007553;28;19930;-47
2022/09/24 02:12:47;;;;;;;;;;;;;;;5.01;100.00;98099.94;5009677;28;20726;-44
2022/09/24 02:15:16;;;;;;;;;;;;;;;4.96;100.00;98105.34;5012569;28;19984;-44
2022/09/24 02:17:46;;;;;;;;;;;;;;;4.83;100.00;98106.78;5011806;28;19925;-49
2022/09/24 02:20:16;;;;;;;;;;;;;;;4.86;100.00;98111.88;5012031;28;20653;-44
2022/09/24 02:22:44;;;;;;;;;;;;;;;4.90;100.00;98103.00;5012219;28;19925;-45
2022/09/24 02:25:14;;;;;;;;;;;;;;;4.87;100.00;98097.06;5012094;28;19926;-46
2022/09/24 02:27:41;;;;;;;;;;;;;;;4.77;100.00;98102.66;5011532;28;19929;-46
2022/09/24 02:30:09;;;;;;;;;;;;;;;4.81;100.00;98100.75;5012379;28;19926;-46
2022/09/24 02:32:39;;;;;;;;;;;;;;;4.70;100.00;98097.72;5012018;28;19934;-45
2022/09/24 02:35:11;;;;;;;;;;;;;;;4.78;100.00;98093.06;5010666;28;19929;-45
2022/09/24 02:37:39;;;;;;;;;;;;;;;4.82;100.00;98094.66;5011941;28;19952;-45
2022/09/24 02:40:08;;;;;;;;;;;;;;;4.64;100.00;98091.00;5011800;28;19940;-45
2022/09/24 02:42:36;;;;;;;;;;;;;;;4.66;100.00;98102.22;5010703;28;19933;-46
2022/09/24 02:45:03;;;;;;;;;;;;;;;4.67;100.00;98103.06;5012104;28;19926;-46
2022/09/24 02:47:30;;;;;;;;;;;;;;;4.67;100.00;98096.09;5011787;28;19926;-45
2022/09/24 02:49:58;;;;;;;;;;;;;;;4.68;100.00;98097.78;5008914;28;20407;-45
2022/09/24 02:52:26;;;;;;;;;;;;;;;4.55;100.00;98098.34;5007763;28;19926;-46
2022/09/24 02:54:53;;;;;;;;;;;;;;;4.57;100.00;98097.34;5011945;28;20381;-45
2022/09/24 02:57:21;;;;;;;;;;;;;;;4.54;100.00;98094.91;5009934;28;20584;-48
2022/09/24 02:59:48;;;;;;;;;;;;;;;4.49;100.00;98099.41;4992212;28;20032;-45
2022/09/24 03:02:15;;;;;;;;;;;;;;;4.52;100.00;98095.84;5013532;28;19932;-47
2022/09/24 03:04:42;;;;;;;;;;;;;;;4.47;100.00;98090.84;5029148;28;19925;-44
2022/09/24 03:07:13;;;;;;;;;;;;;;;4.54;100.00;98092.28;5026114;28;19925;-44
2022/09/24 03:09:42;;;;;;;;;;;;;;;4.48;100.00;98091.66;5028912;28;19929;-44
2022/09/24 03:12:09;;;;;;;;;;;;;;;4.37;100.00;98092.09;5022191;28;19933;-44
2022/09/24 03:14:37;;;;;;;;;;;;;;;4.41;100.00;98090.19;5011506;28;19925;-46
2022/09/24 03:17:04;;;;;;;;;;;;;;;4.32;100.00;98093.19;5019222;28;19932;-45
2022/09/24 03:19:31;;;;;;;;;;;;;;;4.33;100.00;98089.66;5030003;28;19925;-45
2022/09/24 03:21:58;;;;;;;;;;;;;;;4.37;100.00;98086.88;5015032;28;19995;-45
2022/09/24 03:24:25;;;;;;;;;;;;;;;4.40;100.00;98086.78;5029415;28;19925;-44
2022/09/24 03:26:54;;;;;;;;;;;;;;;4.37;100.00;98083.41;4994047;28;19933;-44
2022/09/24 03:30:58;;;;;;;;;;;;;;;4.34;100.00;98073.13;5022357;28;19932;-45
2022/09/24 03:32:07;;;;;;;;;;;;;;;4.31;100.00;98078.47;5018960;28;19925;-44
2022/09/24 03:34:34;;;;;;;;;;;;;;;4.40;100.00;98078.97;5029561;28;19972;-47
2022/09/24 03:37:01;;;;;;;;;;;;;;;4.38;100.00;98077.31;5018204;28;19940;-45
2022/09/24 03:39:28;;;;;;;;;;;;;;;4.31;100.00;98075.88;5029756;28;20310;-45
2022/09/24 03:41:57;;;;;;;;;;;;;;;4.30;100.00;98080.22;5026180;28;21111;-45
2022/09/24 03:44:24;;;;;;;;;;;;;;;4.39;100.00;98079.00;5021207;28;19944;-47
2022/09/24 03:46:51;;;;;;;;;;;;;;;4.43;100.00;98073.63;5020335;28;20023;-45
2022/09/24 03:49:19;;;;;;;;;;;;;;;4.42;100.00;98078.91;5028416;28;19971;-45
2022/09/24 03:51:46;;;;;;;;;;;;;;;4.63;100.00;98078.91;5025504;28;19925;-45
2022/09/24 03:54:13;;;;;;;;;;;;;;;4.68;100.00;98084.75;5027522;28;19932;-45
2022/09/24 03:56:40;;;;;;;;;;;;;;;4.53;100.00;98084.53;5016632;28;19968;-44
2022/09/24 03:59:09;;;;;;;;;;;;;;;4.49;100.00;98091.59;5018013;28;19940;-44
2022/09/24 04:01:37;;;;;;;;;;;;;;;4.63;100.00;98078.03;5025286;28;19925;-45
2022/09/24 04:04:04;;;;;;;;;;;;;;;4.74;100.00;98091.47;5021737;28;19932;-45
2022/09/24 04:06:31;;;;;;;;;;;;;;;4.69;100.00;98089.09;5019802;28;19995;-45
2022/09/24 04:08:59;;;;;;;;;;;;;;;4.71;100.00;98086.41;5026268;28;19929;-47
2022/09/24 04:11:26;;;;;;;;;;;;;;;4.71;100.00;98087.25;5018580;28;19987;-45
2022/09/24 04:13:53;;;;;;;;;;;;;;;4.78;100.00;98085.22;5022826;28;19929;-46
2022/09/24 04:16:22;;;;;;;;;;;;;;;4.75;100.00;98082.78;5023616;28;19925;-46
2022/09/24 04:18:49;;;;;;;;;;;;;;;4.82;100.00;98079.03;5017950;28;19929;-45
2022/09/24 04:21:17;;;;;;;;;;;;;;;4.89;100.00;98075.22;5021701;28;19925;-46
2022/09/24 04:23:44;;;;;;;;;;;;;;;4.86;100.00;98074.50;5028547;28;20442;-44
2022/09/24 04:26:11;;;;;;;;;;;;;;;4.93;100.00;98076.81;5016760;28;19925;-45
2022/09/24 04:28:38;;;;;;;;;;;;;;;4.95;100.00;98079.34;5027440;28;19932;-46
2022/09/24 04:31:05;;;;;;;;;;;;;;;4.98;100.00;98081.81;5020561;28;19932;-44
2022/09/24 04:33:34;;;;;;;;;;;;;;;5.06;100.00;98080.59;5008848;28;20009;-48
2022/09/24 04:36:01;;;;;;;;;;;;;;;5.06;100.00;98072.78;5008038;28;19936;-45
2022/09/24 04:38:28;;;;;;;;;;;;;;;5.09;100.00;98075.25;5019914;28;19941;-45
2022/09/24 04:41:03;;;;;;;;;;;;;;;5.06;100.00;98066.72;5028426;28;20019;-45
2022/09/24 04:43:31;;;;;;;;;;;;;;;5.01;100.00;98069.53;4998866;28;20778;-44
2022/09/24 04:45:59;;;;;;;;;;;;;;;5.00;100.00;98073.03;5021878;28;19952;-46
2022/09/24 04:48:26;;;;;;;;;;;;;;;4.98;100.00;98069.66;5023521;28;19936;-46
2022/09/24 04:50:54;;;;;;;;;;;;;;;5.03;100.00;98064.25;5014568;28;20278;-44
2022/09/24 04:53:22;;;;;;;;;;;;;;;5.02;100.00;98071.22;5026744;28;19925;-45
2022/09/24 04:55:49;;;;;;;;;;;;;;;5.02;100.00;98076.44;5026856;28;20019;-44
2022/09/24 04:58:16;;;;;;;;;;;;;;;5.05;100.00;98070.22;5027027;28;20457;-47
2022/09/24 05:00:43;;;;;;;;;;;;;;;4.92;100.00;98063.84;5027358;28;19932;-46
2022/09/24 05:03:10;;;;;;;;;;;;;;;4.94;100.00;98062.88;5021666;28;20373;-48
2022/09/24 05:05:38;;;;;;;;;;;;;;;4.93;100.00;98055.09;5019465;28;19929;-49
2022/09/24 05:08:06;;;;;;;;;;;;;;;5.06;100.00;98061.50;5027024;28;20032;-47
2022/09/24 05:10:35;;;;;;;;;;;;;;;5.08;100.00;98059.69;5021650;28;20222;-44
2022/09/24 05:13:03;;;;;;;;;;;;;;;5.09;100.00;98057.00;5019082;28;19932;-52
2022/09/24 05:15:30;;;;;;;;;;;;;;;5.14;100.00;98056.81;5023877;28;20423;-44
2022/09/24 05:17:57;;;;;;;;;;;;;;;5.12;100.00;98058.63;5018279;28;19925;-44
2022/09/24 05:20:24;;;;;;;;;;;;;;;5.16;100.00;98055.84;5025668;28;19932;-45
2022/09/24 05:22:51;;;;;;;;;;;;;;;5.17;100.00;98044.50;5019044;28;20398;-45
2022/09/24 05:25:21;;;;;;;;;;;;;;;5.24;100.00;98056.38;5027154;28;19925;-44
2022/09/24 05:27:48;;;;;;;;;;;;;;;5.31;100.00;98057.81;5020773;28;20403;-45
2022/09/24 05:30:15;;;;;;;;;;;;;;;5.39;100.00;98062.66;5013732;28;19925;-47
2022/09/24 05:32:42;;;;;;;;;;;;;;;5.35;100.00;98053.28;5024292;28;19983;-45
2022/09/24 05:35:10;;;;;;;;;;;;;;;5.45;100.00;98054.59;5009841;28;19988;-44
2022/09/24 05:37:37;;;;;;;;;;;;;;;5.44;100.00;98048.50;5007694;28;20030;-44
2022/09/24 05:42:48;;;;;;;;;;;;;;;5.65;100.00;98054.56;5016045;28;19925;-44
2022/09/24 05:45:17;;;;;;;;;;;;;;;5.77;100.00;98062.69;5016121;28;19925;-45
2022/09/24 05:47:44;;;;;;;;;;;;;;;5.94;100.00;98065.44;5016747;28;19925;-45
2022/09/24 05:50:12;;;;;;;;;;;;;;;6.16;100.00;98060.94;5020388;28;19983;-46
2022/09/24 05:52:39;;;;;;;;;;;;;;;6.32;100.00;98059.28;5018690;28;20003;-49
2022/09/24 05:55:07;;;;;;;;;;;;;;;6.53;100.00;98054.81;5012158;28;19929;-46
2022/09/24 05:57:34;;;;;;;;;;;;;;;6.59;100.00;98058.00;5005673;28;19980;-47
2022/09/24 06:00:03;;;;;;;;;;;;;;;6.78;100.00;98061.41;5019007;28;20372;-46
2022/09/24 06:02:39;;;;;;;;;;;;;;;6.99;100.00;98062.97;5017333;28;19925;-46
2022/09/24 06:05:06;;;;;;;;;;;;;;;7.12;100.00;98068.44;5019267;28;19925;-45
2022/09/24 06:07:33;;;;;;;;;;;;;;;7.10;100.00;98068.50;5019654;28;19965;-48
2022/09/24 06:10:01;;;;;;;;;;;;;;;7.13;100.00;98068.38;5016923;28;19944;-46
2022/09/24 06:12:28;;;;;;;;;;;;;;;7.15;100.00;98056.06;5020200;28;20373;-51
2022/09/24 06:14:55;;;;;;;;;;;;;;;7.21;100.00;98057.53;5019361;28;19931;-45
2022/09/24 06:17:26;;;;;;;;;;;;;;;7.31;100.00;98067.44;5021746;28;19932;-46
2022/09/24 06:19:54;;;;;;;;;;;;;;;7.40;100.00;98059.13;5019053;28;19929;-45
2022/09/24 06:22:21;;;;;;;;;;;;;;;7.52;100.00;98063.75;5017857;28;19976;-48
2022/09/24 06:24:50;;;;;;;;;;;;;;;7.56;100.00;98064.41;5017137;28;19933;-46
2022/09/24 06:27:17;;;;;;;;;;;;;;;7.67;100.00;98060.31;5021654;28;20499;-48
2022/09/24 06:29:44;;;;;;;;;;;;;;;7.76;100.00;98065.09;5018935;28;20278;-47
2022/09/24 06:32:11;;;;;;;;;;;;;;;7.74;100.00;98064.31;5021562;28;20001;-50
2022/09/24 06:34:40;;;;;;;;;;;;;;;7.87;100.00;98075.84;5018002;28;19995;-45
2022/09/24 06:37:07;;;;;;;;;;;;;;;7.81;100.00;98076.19;5021497;28;19925;-45
2022/09/24 06:39:34;;;;;;;;;;;;;;;7.98;100.00;98072.69;5022995;28;19925;-47
2022/09/24 06:42:01;;;;;;;;;;;;;;;7.76;100.00;98074.75;5019097;28;20438;-47
2022/09/24 06:44:34;;;;;;;;;;;;;;;8.13;100.00;98073.63;5020800;28;20027;-46
2022/09/24 06:47:01;;;;;;;;;;;;;;;8.17;100.00;98076.03;5023848;28;19926;-45
2022/09/24 06:49:28;;;;;;;;;;;;;;;8.37;100.00;98077.56;5017268;28;20624;-46
2022/09/24 06:51:57;;;;;;;;;;;;;;;8.56;100.00;98079.06;5028790;28;20376;-45
2022/09/24 06:54:24;;;;;;;;;;;;;;;8.67;100.00;98088.97;5026794;28;19949;-46
2022/09/24 06:56:51;;;;;;;;;;;;;;;8.58;100.00;98082.47;5019884;28;20356;-50
2022/09/24 06:59:19;;;;;;;;;;;;;;;8.77;100.00;98092.75;5010703;28;19933;-47
2022/09/24 07:01:46;;;;;;;;;;;;;;;8.65;100.00;98088.22;5011307;28;20393;-45
2022/09/24 07:04:13;;;;;;;;;;;;;;;8.86;100.00;98093.13;5010928;28;19926;-45
2022/09/24 07:09:26;;;;;;;;;;;;;;;9.38;100.00;98094.47;5005671;28;20376;-47
2022/09/24 07:11:53;;;;;;;;;;;;;;;8.94;100.00;98085.66;5003921;28;19932;-45
2022/09/24 07:14:20;;;;;;;;;;;;;;;9.43;100.00;98086.31;5007142;28;19926;-45
2022/09/24 07:16:48;;;;;;;;;;;;;;;9.72;100.00;98088.06;5007469;28;19926;-46
2022/09/24 07:19:15;;;;;;;;;;;;;;;9.63;100.00;98088.63;5005003;28;19936;-48
2022/09/24 07:21:42;;;;;;;;;;;;;;;9.54;100.00;98095.25;5005737;28;19933;-45
2022/09/24 07:24:09;;;;;;;;;;;;;;;9.38;100.00;98096.25;5007472;28;19929;-46
2022/09/24 07:26:38;;;;;;;;;;;;;;;9.36;100.00;98098.13;5005417;28;19933;-46
2022/09/24 07:29:05;;;;;;;;;;;;;;;9.21;100.00;98093.72;5004502;28;19926;-49
2022/09/24 07:31:32;;;;;;;;;;;;;;;9.64;100.00;98095.56;5006081;28;19926;-46
2022/09/24 07:33:59;;;;;;;;;;;;;;;10.10;100.00;98102.38;5004200;28;20414;-46
2022/09/24 07:36:28;;;;;;;;;;;;;;;10.16;99.26;98099.34;4998541;28;20288;-50
2022/09/24 07:38:56;;;;;;;;;;;;;;;10.06;100.00;98096.44;5001704;28;19925;-47
2022/09/24 07:41:23;;;;;;;;;;;;;;;10.43;100.00;98100.28;5008803;28;19926;-46
2022/09/24 07:43:52;;;;;;;;;;;;;;;10.37;99.66;98098.91;5006166;28;19991;-50
2022/09/24 07:46:20;;;;;;;;;;;;;;;10.35;94.70;98102.53;5009285;28;20039;-46
2022/09/24 07:48:48;;;;;;;;;;;;;;;10.62;98.58;98100.81;5008876;28;19925;-47
2022/09/24 07:51:15;;;;;;;;;;;;;;;10.94;96.18;98091.72;5008405;28;19937;-47
2022/09/24 07:53:42;;;;;;;;;;;;;;;10.59;95.58;98091.34;5026930;28;19925;-47
2022/09/24 07:56:10;;;;;;;;;;;;;;;10.75;96.11;98099.13;5013159;28;19926;-45
2022/09/24 07:58:37;;;;;;;;;;;;;;;11.11;94.61;98092.34;4988483;28;19937;-47
2022/09/24 08:01:05;;;;;;;;;;;;;;;10.91;95.81;98102.47;5002150;28;19930;-45
2022/09/24 08:03:33;;;;;;;;;;;;;;;11.22;93.15;98096.91;5005004;28;19929;-47
2022/09/24 08:06:00;;;;;;;;;;;;;;;10.98;93.02;98087.94;5010457;28;19999;-45
2022/09/24 08:08:28;;;;;;;;;;;;;;;11.19;93.66;98091.81;5019493;28;20368;-51
2022/09/24 08:10:55;;;;;;;;;;;;;;;11.02;93.19;98092.09;5010761;28;20036;-47
2022/09/24 08:13:22;;;;;;;;;;;;;;;11.32;91.18;98087.47;5008148;28;19925;-46
2022/09/24 08:15:55;;;;;;;;;;;;;;;11.57;90.11;98084.88;5003031;28;19934;-46
2022/09/24 08:18:24;;;;;;;;;;;;;;;11.60;88.90;98086.47;5008429;28;20068;-46
2022/09/24 08:20:51;;;;;;;;;;;;;;;11.84;88.91;98082.13;5017350;28;19956;-50
2022/09/24 08:23:19;;;;;;;;;;;;;;;11.45;91.80;98088.31;5026877;28;19932;-47
2022/09/24 08:25:46;;;;;;;;;;;;;;;11.80;89.45;98089.44;5024022;28;19929;-47
2022/09/24 08:28:15;;;;;;;;;;;;;;;11.66;89.58;98080.75;5010318;28;20019;-46
2022/09/24 08:30:43;;;;;;;;;;;;;;;11.72;89.78;98085.63;5008525;28;19932;-46
2022/09/24 08:33:10;;;;;;;;;;;;;;;11.76;89.24;98087.09;5005994;28;20504;-47
2022/09/24 08:35:39;;;;;;;;;;;;;;;11.48;87.83;98090.75;5004589;28;19987;-46
2022/09/24 08:38:07;;;;;;;;;;;;;;;11.60;88.73;98091.72;5003481;28;19954;-46
2022/09/24 08:40:37;;;;;;;;;;;;;;;11.74;86.63;98089.84;5005980;28;19980;-48
2022/09/24 08:43:08;;;;;;;;;;;;;;;11.74;84.14;98096.88;5001278;28;20364;-45
2022/09/24 08:48:28;;;;;;;;;;;;;;;11.99;87.12;98089.88;5006383;28;19932;-45
2022/09/24 08:51:01;;;;;;;;;;;;;;;12.09;86.85;98087.47;5009101;28;19932;-45
2022/09/24 08:53:30;;;;;;;;;;;;;;;12.23;85.40;98082.88;4990698;28;20387;-47
2022/09/24 08:55:59;;;;;;;;;;;;;;;12.35;83.39;98087.34;5006350;28;19932;-47
2022/09/24 08:58:31;;;;;;;;;;;;;;;12.15;83.84;98087.03;5009310;28;19925;-46
2022/09/24 09:01:02;;;;;;;;;;;;;;;12.24;83.82;98094.28;4995387;28;19926;-46
2022/09/24 09:03:35;;;;;;;;;;;;;;;12.00;85.65;98091.56;5009803;28;20369;-46
2022/09/24 09:06:10;;;;;;;;;;;;;;;12.14;84.92;98088.81;5009149;28;20365;-48
2022/09/24 09:08:42;;;;;;;;;;;;;;;12.18;84.35;98087.66;5006019;28;19925;-47
2022/09/24 09:11:13;;;;;;;;;;;;;;;12.29;84.18;98081.63;5008439;28;19925;-46
2022/09/24 09:13:42;;;;;;;;;;;;;;;11.96;82.54;98083.97;5002057;28;20095;-49
2022/09/24 09:16:17;;;;;;;;;;;;;;;11.98;81.51;98087.34;5009191;28;20635;-48
2022/09/24 09:18:47;;;;;;;;;;;;;;;11.98;83.43;98080.28;5009633;28;20384;-47
2022/09/24 09:21:16;;;;;;;;;;;;;;;12.15;85.54;98077.31;4984545;28;19926;-48
2022/09/24 09:23:47;;;;;;;;;;;;;;;12.20;85.98;98077.84;4992605;28;19926;-47
2022/09/24 09:26:17;;;;;;;;;;;;;;;12.29;84.34;98073.69;5009457;28;19964;-46
2022/09/24 09:28:44;;;;;;;;;;;;;;;12.44;85.29;98076.13;5011750;28;19925;-47
2022/09/24 09:31:19;;;;;;;;;;;;;;;12.43;83.36;98073.56;5012849;28;19926;-46
2022/09/24 09:33:52;;;;;;;;;;;;;;;12.27;76.69;98067.72;5013457;28;19932;-48
2022/09/24 09:36:30;;;;;;;;;;;;;;;12.34;75.51;98066.34;5010857;28;19926;-49
2022/09/24 09:39:01;;;;;;;;;;;;;;;12.27;76.56;98062.44;5004009;28;19925;-47
2022/09/24 09:41:32;;;;;;;;;;;;;;;12.64;76.51;98062.34;4996783;28;20406;-47
2022/09/24 09:44:01;;;;;;;;;;;;;;;12.56;71.98;98056.75;4993390;28;20039;-46
2022/09/24 09:46:33;;;;;;;;;;;;;;;12.60;69.52;98047.66;5003538;28;19937;-47
2022/09/24 09:49:01;;;;;;;;;;;;;;;12.52;70.21;98054.47;5005915;28;19932;-52
2022/09/24 09:51:32;;;;;;;;;;;;;;;12.60;69.09;98042.38;5012565;28;19948;-48
2022/09/24 09:54:00;;;;;;;;;;;;;;;12.51;71.23;98039.56;4993677;28;19926;-47
2022/09/24 09:56:29;;;;;;;;;;;;;;;12.54;72.34;98040.22;4992250;28;19926;-48
2022/09/24 09:59:02;;;;;;;;;;;;;;;12.63;71.72;98036.06;4993519;28;19953;-47
2022/09/24 10:01:34;;;;;;;;;;;;;;;12.55;70.84;98033.13;5000614;28;20389;-48
2022/09/24 10:04:03;;;;;;;;;;;;;;;12.61;72.25;98033.53;4991392;28;20397;-47
2022/09/24 10:06:32;;;;;;;;;;;;;;;12.84;69.21;98032.69;4993137;28;19934;-49
2022/09/24 10:09:07;;;;;;;;;;;;;;;12.62;67.02;98035.22;4993119;28;19926;-47
2022/09/24 10:11:34;;;;;;;;;;;;;;;12.80;67.38;98031.25;5002710;28;19972;-48
2022/09/24 10:14:02;;;;;;;;;;;;;;;12.89;68.52;98025.28;5000621;28;19932;-47
2022/09/24 10:16:29;;;;;;;;;;;;;;;12.91;66.72;98025.16;5003733;28;19925;-46
2022/09/24 10:18:56;;;;;;;;;;;;;;;12.81;65.21;98027.63;5000084;28;19925;-49
2022/09/24 10:21:28;;;;;;;;;;;;;;;12.79;65.82;98020.78;5002276;28;20389;-46
2022/09/24 10:23:58;;;;;;;;;;;;;;;12.84;67.88;98022.13;5003113;28;20013;-47
2022/09/24 10:26:33;;;;;;;;;;;;;;;12.83;66.38;98027.53;5000329;28;20385;-47
2022/09/24 10:31:46;;;;;;;;;;;;;;;12.55;63.62;98020.78;5004786;28;19926;-49
2022/09/24 10:34:25;;;;;;;;;;;;;;;12.67;64.66;98014.59;5004940;28;20420;-47
2022/09/24 10:36:53;;;;;;;;;;;;;;;12.47;63.07;98023.13;5009824;28;19933;-46
2022/09/24 10:39:22;;;;;;;;;;;;;;;12.44;64.14;98012.78;5010194;28;19925;-47
2022/09/24 10:41:50;;;;;;;;;;;;;;;12.95;64.56;98014.28;4997458;28;19925;-47
2022/09/24 10:44:18;;;;;;;;;;;;;;;12.60;65.44;98018.63;5011609;28;19932;-48
2022/09/24 10:46:51;;;;;;;;;;;;;;;12.66;63.36;98015.56;4993266;28;20461;-50
2022/09/24 10:49:25;;;;;;;;;;;;;;;12.56;62.28;98019.81;5011146;28;19940;-48
2022/09/24 10:51:57;;;;;;;;;;;;;;;12.64;63.50;98016.63;5013940;28;19929;-45
2022/09/24 10:54:36;;;;;;;;;;;;;;;12.79;63.85;98024.28;5030331;28;19932;-46
2022/09/24 10:57:08;;;;;;;;;;;;;;;12.90;61.96;98021.69;5022951;28;20023;-46
2022/09/24 10:59:50;;;;;;;;;;;;;;;12.86;60.79;98019.38;5005444;28;20448;-49
2022/09/24 11:02:27;;;;;;;;;;;;;;;12.77;60.11;98018.25;5009360;28;20016;-49
2022/09/24 11:04:56;;;;;;;;;;;;;;;12.94;61.74;98014.38;5010022;28;20367;-49
2022/09/24 11:07:30;;;;;;;;;;;;;;;12.72;63.09;98016.91;5008015;28;19926;-47
2022/09/24 11:10:01;;;;;;;;;;;;;;;13.21;63.67;98010.56;5005570;28;20016;-48
2022/09/24 11:12:34;;;;;;;;;;;;;;;13.04;63.01;98016.22;5004060;28;19925;-46
2022/09/24 11:15:13;;;;;;;;;;;;;;;12.94;61.62;98014.38;5009230;28;19937;-46
2022/09/24 11:17:45;;;;;;;;;;;;;;;12.92;61.06;98011.84;4993276;28;19957;-48
2022/09/24 11:20:25;;;;;;;;;;;;;;;13.21;61.85;98009.72;4994042;28;20623;-48
2022/09/24 11:23:01;;;;;;;;;;;;;;;13.58;62.47;98008.59;5011031;28;19925;-47
2022/09/24 11:25:35;;;;;;;;;;;;;;;13.29;63.39;98010.81;5010935;28;19930;-47
2022/09/24 11:28:20;;;;;;;;;;;;;;;13.43;61.81;98001.84;5011466;28;19929;-48
2022/09/24 11:30:52;;;;;;;;;;;;;;;13.18;60.94;98008.16;4994883;28;19933;-48
2022/09/24 11:33:28;;;;;;;;;;;;;;;13.06;61.56;98003.78;5027370;28;19925;-47
2022/09/24 11:36:08;;;;;;;;;;;;;;;13.07;62.65;97994.91;5014711;28;20331;-48
2022/09/24 11:38:45;;;;;;;;;;;;;;;13.48;60.49;97997.88;5012419;28;19941;-46
2022/09/24 11:41:21;;;;;;;;;;;;;;;13.52;60.92;97998.53;5006648;28;19926;-53
2022/09/24 11:43:58;;;;;;;;;;;;;;;13.29;62.84;97999.44;5008581;28;19929;-49
2022/09/24 11:46:33;;;;;;;;;;;;;;;13.17;62.39;97998.53;5008393;28;20300;-46
2022/09/24 11:49:22;;;;;;;;;;;;;;;13.47;64.78;97995.38;5009108;28;20060;-50
2022/09/24 11:51:53;;;;;;;;;;;;;;;13.43;63.02;97994.78;4990636;28;20320;-49
2022/09/24 11:54:25;;;;;;;;;;;;;;;13.77;62.05;97993.03;5007750;28;20360;-51
2022/09/24 11:56:57;;;;;;;;;;;;;;;13.83;62.34;97996.03;5010588;28;20377;-49
2022/09/24 11:59:31;;;;;;;;;;;;;;;13.74;61.42;97996.72;5008749;28;19925;-51
2022/09/24 12:02:03;;;;;;;;;;;;;;;13.50;61.89;97993.34;4987439;28;20443;-49
2022/09/24 12:04:37;;;;;;;;;;;;;;;13.14;63.97;97982.91;4985809;28;19930;-48
2022/09/24 12:07:11;;;;;;;;;;;;;;;12.89;62.94;97987.47;5002389;28;20336;-48
2022/09/24 12:09:41;;;;;;;;;;;;;;;12.85;62.92;97991.31;5008759;28;19925;-46
2022/09/24 12:12:14;;;;;;;;;;;;;;;12.99;63.98;97989.31;5006740;28;19925;-48
2022/09/24 12:14:45;;;;;;;;;;;;;;;12.88;64.49;97980.50;5007733;28;19941;-47
2022/09/24 12:17:16;;;;;;;;;;;;;;;13.00;63.92;97983.06;5006635;28;20396;-48
2022/09/24 12:19:49;;;;;;;;;;;;;;;13.07;65.52;97986.97;5006453;28;20439;-51
2022/09/24 12:22:17;;;;;;;;;;;;;;;13.08;64.95;97987.81;5008283;28;19929;-51
2022/09/24 12:24:48;;;;;;;;;;;;;;;13.14;64.16;97984.69;5008358;28;19980;-47
2022/09/24 12:27:19;;;;;;;;;;;;;;;12.90;66.52;97984.72;5025123;28;19929;-49
2022/09/24 12:32:56;;;;;;;;;;;;;;;13.24;64.09;97978.63;5006197;28;19929;-52
2022/09/24 12:35:34;;;;;;;;;;;;;;;13.52;64.01;97987.94;5006800;28;19925;-48
2022/09/24 12:38:03;;;;;;;;;;;;;;;13.65;62.66;97978.09;5006770;28;20023;-46
2022/09/24 12:40:51;;;;;;;;;;;;;;;13.56;60.95;97974.38;4988953;28;19982;-46
2022/09/24 12:43:24;;;;;;;;;;;;;;;13.49;59.98;97973.16;5005283;28;19935;-50
2022/09/24 12:45:54;;;;;;;;;;;;;;;13.56;60.30;97977.03;5016607;28;19929;-49
2022/09/24 12:48:23;;;;;;;;;;;;;;;13.68;62.22;97973.44;5009066;28;19930;-47
2022/09/24 12:50:56;;;;;;;;;;;;;;;13.65;61.53;97973.66;5006201;28;20028;-46
2022/09/24 12:53:26;;;;;;;;;;;;;;;13.85;61.63;97965.00;5006338;28;20012;-49
2022/09/24 12:55:58;;;;;;;;;;;;;;;13.28;58.84;97964.22;5019132;28;19925;-47
2022/09/24 12:58:30;;;;;;;;;;;;;;;13.17;61.63;97960.69;5003337;28;19932;-49
2022/09/24 13:01:08;;;;;;;;;;;;;;;13.36;61.60;97955.69;5004704;28;19926;-48
2022/09/24 13:03:37;;;;;;;;;;;;;;;13.36;64.09;97955.69;4994404;28;20111;-50
2022/09/24 13:06:05;;;;;;;;;;;;;;;13.65;61.76;97952.50;5002041;28;20071;-48
2022/09/24 13:08:38;;;;;;;;;;;;;;;13.61;62.22;97958.16;5005979;28;19937;-46
2022/09/24 13:11:24;;;;;;;;;;;;;;;13.65;63.99;97962.22;5005426;28;19936;-47
2022/09/24 13:14:00;;;;;;;;;;;;;;;13.35;64.66;97954.88;5006683;28;20020;-47